Time;durP1;ratioP1;P1;durP2;ratioP2;P2;SDS_P1;SDS_P2;PMS_P1;PMS_P2;Temp;Humidity;BMP_temperature;BMP_pressure;BME280_temperature;BME280_humidity;BME280_pressure;Samples;Min_cycle;Max_cycle;Signal;HPM_P1;HPM_P2
2021/05/29 00:02:22;;;;;;;6.30;5.90;;;10.90;80.30;;;;;;5035358;28;20165;-87
2021/05/29 00:04:47;;;;;;;6.60;6.10;;;10.80;80.00;;;;;;5019250;28;20207;-88
2021/05/29 00:07:13;;;;;;;6.50;6.20;;;10.80;80.30;;;;;;5036886;28;20983;-87
2021/05/29 00:09:39;;;;;;;6.73;6.27;;;10.70;80.10;;;;;;5036795;28;20191;-87
2021/05/29 00:12:08;;;;;;;7.20;6.70;;;10.70;80.70;;;;;;5036951;28;20204;-88
2021/05/29 00:14:35;;;;;;;7.77;7.23;;;10.60;81.10;;;;;;5036782;28;20186;-87
2021/05/29 00:17:01;;;;;;;7.10;6.60;;;10.60;80.80;;;;;;5020716;28;20470;-88
2021/05/29 00:19:26;;;;;;;7.10;6.63;;;10.60;81.40;;;;;;5037966;28;20210;-87
2021/05/29 00:21:52;;;;;;;6.33;6.00;;;10.60;81.20;;;;;;5037268;28;20505;-87
2021/05/29 00:24:17;;;;;;;6.57;6.30;;;10.60;81.40;;;;;;5040293;28;20171;-86
2021/05/29 00:26:43;;;;;;;6.77;6.37;;;10.50;81.00;;;;;;5025390;28;20183;-87
2021/05/29 00:29:09;;;;;;;7.97;7.47;;;10.50;81.60;;;;;;5021403;28;20216;-87
2021/05/29 00:31:34;;;;;;;6.43;6.03;;;10.50;82.00;;;;;;5030494;28;20169;-87
2021/05/29 00:34:00;;;;;;;6.23;5.73;;;10.50;81.50;;;;;;5028580;28;20267;-88
2021/05/29 00:36:25;;;;;;;6.67;6.17;;;10.60;81.70;;;;;;5016806;28;20568;-87
2021/05/29 00:38:51;;;;;;;6.90;6.60;;;10.60;81.00;;;;;;5016471;28;20227;-87
2021/05/29 00:41:18;;;;;;;6.87;6.37;;;10.60;80.50;;;;;;5016627;28;20160;-87
2021/05/29 00:43:44;;;;;;;6.10;5.80;;;10.60;80.30;;;;;;5016333;28;20169;-87
2021/05/29 00:46:10;;;;;;;5.82;5.63;;;10.50;80.10;;;;;;5016256;28;20499;-86
2021/05/29 00:48:37;;;;;;;6.70;6.33;;;10.50;80.70;;;;;;5016441;28;20248;-87
2021/05/29 00:51:04;;;;;;;6.23;6.03;;;10.60;81.10;;;;;;5016251;28;20165;-87
2021/05/29 00:53:32;;;;;;;5.87;5.60;;;10.60;80.80;;;;;;5016075;28;20567;-87
2021/05/29 00:55:59;;;;;;;6.80;6.50;;;10.60;80.00;;;;;;5014927;28;20785;-86
2021/05/29 00:58:26;;;;;;;6.63;6.23;;;10.60;80.20;;;;;;5015084;28;20426;-86
2021/05/29 01:00:53;;;;;;;6.57;6.13;;;10.40;80.10;;;;;;5016072;28;20408;-87
2021/05/29 01:03:19;;;;;;;6.97;6.57;;;10.40;80.70;;;;;;5016024;28;20426;-87
2021/05/29 01:05:46;;;;;;;7.30;6.90;;;10.80;81.80;;;;;;5015951;28;20553;-87
2021/05/29 01:08:12;;;;;;;11.50;7.10;;;10.90;82.10;;;;;;5015655;28;20407;-87
2021/05/29 01:10:38;;;;;;;7.38;7.03;;;10.30;81.10;;;;;;5015850;28;20799;-87
2021/05/29 01:13:09;;;;;;;7.15;6.72;;;10.30;81.50;;;;;;5014982;28;20575;-87
2021/05/29 01:15:39;;;;;;;7.63;7.00;;;10.20;81.20;;;;;;5016002;28;20156;-87
2021/05/29 01:18:06;;;;;;;6.90;6.50;;;10.30;81.60;;;;;;5015122;28;20427;-87
2021/05/29 01:20:32;;;;;;;6.80;6.40;;;10.30;81.00;;;;;;5015141;28;20420;-87
2021/05/29 01:22:59;;;;;;;6.87;6.47;;;10.20;80.90;;;;;;5016947;28;20420;-87
2021/05/29 01:25:35;;;;;;;6.28;5.97;;;11.80;83.40;;;;;;5014919;28;20426;-87
2021/05/29 01:28:03;;;;;;;6.93;6.53;;;10.20;82.10;;;;;;5016720;28;20175;-87
2021/05/29 01:30:34;;;;;;;6.50;6.18;;;10.10;81.20;;;;;;5030713;28;20486;-88
2021/05/29 01:33:01;;;;;;;6.70;6.35;;;10.20;81.30;;;;;;5022603;28;20204;-88
2021/05/29 01:35:27;;;;;;;6.18;5.70;;;10.10;80.90;;;;;;5016601;28;20248;-86
2021/05/29 01:37:54;;;;;;;6.77;6.37;;;10.00;81.50;;;;;;5015438;28;20270;-88
2021/05/29 01:40:19;;;;;;;7.70;7.10;;;10.00;82.00;;;;;;5015365;28;20410;-87
2021/05/29 01:42:46;;;;;;;6.60;6.20;;;9.90;83.90;;;;;;5014064;28;20776;-86
2021/05/29 01:45:13;;;;;;;6.78;6.47;;;9.90;84.20;;;;;;5015232;28;20176;-87
2021/05/29 01:47:44;;;;;;;8.87;8.23;;;10.00;82.20;;;;;;5013898;28;20188;-86
2021/05/29 01:50:15;;;;;;;6.18;5.75;;;10.00;81.50;;;;;;5013805;28;20918;-87
2021/05/29 01:52:52;;;;;;;6.80;6.30;;;9.90;83.20;;;;;;5015060;28;20208;-87
2021/05/29 01:55:22;;;;;;;8.10;7.32;;;9.80;83.30;;;;;;5013806;28;20258;-87
2021/05/29 01:57:48;;;;;;;7.20;6.70;;;9.80;83.70;;;;;;5015220;28;20231;-87
2021/05/29 02:00:15;;;;;;;7.83;7.30;;;9.80;84.00;;;;;;5014881;28;20645;-87
2021/05/29 02:02:40;;;;;;;6.78;6.35;;;9.70;84.30;;;;;;5014963;28;20248;-87
2021/05/29 02:05:10;;;;;;;6.83;6.43;;;9.70;84.60;;;;;;5014994;28;20204;-87
2021/05/29 02:07:35;;;;;;;7.20;6.80;;;9.70;84.60;;;;;;5014836;28;20168;-87
2021/05/29 02:10:01;;;;;;;7.30;6.97;;;9.70;84.70;;;;;;5013565;28;20230;-87
2021/05/29 02:12:27;;;;;;;8.18;7.22;;;9.60;85.00;;;;;;5014655;28;20203;-87
2021/05/29 02:14:52;;;;;;;7.10;6.40;;;9.60;85.20;;;;;;5014782;28;20264;-87
2021/05/29 02:17:18;;;;;;;7.90;7.30;;;9.60;85.10;;;;;;5014492;28;20180;-87
2021/05/29 02:19:44;;;;;;;6.50;6.20;;;9.60;85.10;;;;;;5014593;28;20238;-87
2021/05/29 02:22:09;;;;;;;6.90;6.50;;;9.50;85.10;;;;;;5013181;28;20222;-87
2021/05/29 02:24:35;;;;;;;8.20;7.80;;;9.50;85.30;;;;;;5012845;28;20188;-87
2021/05/29 02:27:00;;;;;;;18.57;8.13;;;9.50;85.50;;;;;;5014113;28;20218;-88
2021/05/29 02:29:26;;;;;;;7.90;7.30;;;9.40;85.30;;;;;;5013059;28;20382;-88
2021/05/29 02:31:51;;;;;;;7.47;6.83;;;9.30;86.10;;;;;;5013078;28;20212;-87
2021/05/29 02:34:17;;;;;;;8.03;7.33;;;9.40;86.40;;;;;;5014294;28;20181;-88
2021/05/29 02:36:42;;;;;;;7.30;6.90;;;9.30;86.50;;;;;;5013042;28;20606;-88
2021/05/29 02:39:08;;;;;;;7.43;7.03;;;9.30;86.20;;;;;;5012973;28;20176;-87
2021/05/29 02:41:33;;;;;;;7.80;7.30;;;9.30;86.50;;;;;;5014130;28;20169;-86
2021/05/29 02:43:59;;;;;;;8.00;7.50;;;9.10;85.80;;;;;;5014023;28;20183;-88
2021/05/29 02:46:24;;;;;;;8.03;7.53;;;8.90;87.40;;;;;;5013118;28;20231;-89
2021/05/29 02:48:50;;;;;;;8.30;7.73;;;9.20;94.30;;;;;;5014107;28;20175;-87
2021/05/29 02:51:15;;;;;;;7.23;6.63;;;9.20;94.40;;;;;;5014187;28;20192;-87
2021/05/29 02:53:42;;;;;;;8.23;7.57;;;8.20;92.10;;;;;;5012757;28;20239;-87
2021/05/29 02:56:08;;;;;;;8.13;7.45;;;9.10;92.30;;;;;;5013961;28;20172;-87
2021/05/29 02:58:34;;;;;;;7.23;6.83;;;8.70;92.60;;;;;;5013811;28;20530;-87
2021/05/29 03:00:59;;;;;;;8.30;7.70;;;9.10;92.50;;;;;;5013791;28;20647;-87
2021/05/29 03:03:25;;;;;;;7.90;7.40;;;9.00;92.90;;;;;;5013962;28;20207;-87
2021/05/29 03:05:50;;;;;;;7.37;6.77;;;9.00;92.60;;;;;;5013892;28;20237;-87
2021/05/29 03:08:17;;;;;;;11.73;8.70;;;9.00;93.50;;;;;;5021009;28;20250;-88
2021/05/29 03:10:45;;;;;;;8.02;7.22;;;8.50;91.30;;;;;;5026014;28;20179;-86
2021/05/29 03:13:11;;;;;;;8.18;7.43;;;9.30;93.10;;;;;;5020547;28;20200;-87
2021/05/29 03:15:37;;;;;;;7.65;6.88;;;8.30;92.80;;;;;;5012724;28;20172;-87
2021/05/29 03:18:05;;;;;;;8.73;7.85;;;8.70;92.20;;;;;;5013440;28;20173;-88
2021/05/29 03:20:31;;;;;;;7.85;7.25;;;9.30;94.50;;;;;;5012511;28;20169;-87
2021/05/29 03:22:57;;;;;;;7.93;7.43;;;9.40;93.80;;;;;;5013663;28;20172;-87
2021/05/29 03:25:23;;;;;;;8.70;8.10;;;9.00;93.80;;;;;;5013560;28;20172;-88
2021/05/29 03:27:51;;;;;;;7.47;7.07;;;9.30;92.70;;;;;;5012603;28;20179;-87
2021/05/29 03:30:20;;;;;;;7.38;6.78;;;9.00;92.30;;;;;;5031496;28;20220;-88
2021/05/29 03:32:46;;;;;;;8.48;7.75;;;9.30;91.90;;;;;;5033348;28;20203;-87
2021/05/29 03:35:13;;;;;;;8.00;7.50;;;9.10;92.30;;;;;;5015407;28;20650;-88
2021/05/29 03:37:39;;;;;;;8.45;7.75;;;9.30;93.00;;;;;;5032631;28;20175;-87
2021/05/29 03:40:10;;;;;;;7.83;7.43;;;8.90;92.60;;;;;;5016557;28;20168;-87
2021/05/29 03:42:35;;;;;;;7.35;6.65;;;9.20;92.40;;;;;;5033251;28;20419;-86
2021/05/29 03:45:01;;;;;;;9.00;8.30;;;8.80;94.40;;;;;;5033197;28;20171;-87
2021/05/29 03:47:27;;;;;;;8.03;7.50;;;8.90;94.20;;;;;;5033018;28;20168;-86
2021/05/29 03:49:53;;;;;;;7.70;7.20;;;8.70;92.20;;;;;;5033453;28;20247;-87
2021/05/29 03:52:18;;;;;;;16.20;7.93;;;8.70;93.50;;;;;;5032942;28;20224;-86
2021/05/29 03:54:44;;;;;;;8.40;7.90;;;9.00;94.10;;;;;;5033318;28;20576;-86
2021/05/29 03:57:09;;;;;;;8.20;7.70;;;9.00;94.20;;;;;;5015967;28;20643;-87
2021/05/29 03:59:35;;;;;;;7.70;7.30;;;9.10;93.70;;;;;;5018490;28;20183;-87
2021/05/29 04:02:00;;;;;;;8.83;8.07;;;8.80;94.20;;;;;;5039335;28;20255;-87
2021/05/29 04:04:26;;;;;;;7.53;7.13;;;10.40;93.30;;;;;;5022671;28;20584;-87
2021/05/29 04:06:51;;;;;;;7.17;6.80;;;8.80;91.40;;;;;;5040687;28;20529;-87
2021/05/29 04:09:17;;;;;;;8.30;7.67;;;9.20;92.10;;;;;;5033059;28;20181;-87
2021/05/29 04:11:43;;;;;;;7.83;7.33;;;8.50;90.70;;;;;;5015385;28;20180;-86
2021/05/29 04:14:09;;;;;;;8.57;7.93;;;8.80;92.40;;;;;;5032979;28;20251;-87
2021/05/29 04:16:35;;;;;;;7.75;7.30;;;9.10;84.40;;;;;;5015637;28;20639;-87
2021/05/29 04:19:01;;;;;;;9.13;8.33;;;9.10;85.10;;;;;;5033382;28;20168;-87
2021/05/29 04:21:26;;;;;;;7.70;7.20;;;9.10;85.10;;;;;;5032743;28;20255;-87
2021/05/29 04:23:52;;;;;;;7.10;6.60;;;9.00;85.40;;;;;;5032832;28;20171;-87
2021/05/29 04:26:19;;;;;;;7.87;7.17;;;9.10;84.90;;;;;;5032985;28;20406;-88
2021/05/29 04:28:44;;;;;;;8.00;7.50;;;9.20;85.10;;;;;;5033345;28;20208;-88
2021/05/29 04:31:10;;;;;;;6.80;6.50;;;9.30;83.80;;;;;;5015635;28;20627;-87
2021/05/29 04:33:36;;;;;;;7.80;7.20;;;9.20;84.40;;;;;;5033286;28;20230;-88
2021/05/29 04:36:02;;;;;;;8.50;7.90;;;9.10;85.20;;;;;;5033031;28;20172;-87
2021/05/29 04:38:28;;;;;;;8.55;7.95;;;9.30;85.70;;;;;;5016001;28;20233;-88
2021/05/29 04:40:54;;;;;;;6.37;6.07;;;9.10;89.20;;;;;;5034832;28;20231;-87
2021/05/29 04:43:19;;;;;;;7.23;6.73;;;9.90;81.80;;;;;;5021042;28;20172;-88
2021/05/29 04:45:45;;;;;;;6.83;6.53;;;10.10;89.60;;;;;;5046090;28;20401;-87
2021/05/29 04:48:11;;;;;;;6.53;6.13;;;10.10;79.90;;;;;;5039343;28;20202;-87
2021/05/29 04:51:12;;;;;;;6.30;6.00;;;10.40;77.60;;;;;;5053707;28;20639;-88
2021/05/29 04:53:25;;;;;;;6.13;5.90;;;10.70;76.00;;;;;;5037156;28;20466;-88
2021/05/29 04:55:53;;;;;;;6.70;6.30;;;11.00;75.30;;;;;;5019323;28;20426;-88
2021/05/29 04:58:22;;;;;;;6.72;5.85;;;11.70;89.00;;;;;;5018996;28;20184;-88
2021/05/29 05:00:47;;;;;;;6.27;6.07;;;11.90;80.00;;;;;;5019060;28;20188;-88
2021/05/29 05:03:13;;;;;;;6.70;6.20;;;12.20;68.90;;;;;;5036543;28;20910;-88
2021/05/29 05:05:39;;;;;;;6.90;6.50;;;12.20;67.60;;;;;;5036822;28;20568;-87
2021/05/29 05:08:05;;;;;;;5.73;5.50;;;12.20;68.00;;;;;;5036713;28;20218;-87
2021/05/29 05:10:31;;;;;;;7.17;6.57;;;12.50;67.70;;;;;;5036815;28;20191;-87
2021/05/29 05:12:56;;;;;;;7.10;6.43;;;12.70;66.00;;;;;;5036441;28;20466;-88
2021/05/29 05:15:22;;;;;;;5.73;5.43;;;13.20;65.30;;;;;;5018375;28;20171;-87
2021/05/29 05:17:47;;;;;;;6.80;6.40;;;13.40;64.10;;;;;;5019254;28;20279;-87
2021/05/29 05:20:14;;;;;;;7.20;6.80;;;13.90;62.60;;;;;;5036572;28;20176;-86
2021/05/29 05:22:39;;;;;;;5.47;5.27;;;14.30;59.80;;;;;;4682933;28;10000408;-87
2021/05/29 05:25:06;;;;;;;6.33;5.93;;;14.60;59.10;;;;;;4995420;28;20165;-87
2021/05/29 05:27:33;;;;;;;6.60;6.17;;;14.90;58.80;;;;;;4994771;28;20173;-88
2021/05/29 05:30:00;;;;;;;5.83;5.63;;;14.60;58.30;;;;;;4994175;28;20448;-88
2021/05/29 05:32:25;;;;;;;6.50;6.20;;;15.70;57.30;;;;;;4994326;28;20480;-87
2021/05/29 05:34:51;;;;;;;6.10;5.80;;;16.20;57.50;;;;;;4994012;28;20534;-88
2021/05/29 05:37:17;;;;;;;5.90;5.60;;;15.70;57.50;;;;;;4994196;28;20581;-88
2021/05/29 05:39:42;;;;;;;7.27;6.80;;;16.30;56.90;;;;;;4976167;28;20177;-88
2021/05/29 05:42:08;;;;;;;6.73;6.53;;;16.60;55.90;;;;;;4978960;28;20256;-88
2021/05/29 05:44:34;;;;;;;7.83;7.20;;;16.90;55.50;;;;;;5009410;28;20172;-87
2021/05/29 05:47:00;;;;;;;8.80;8.30;;;16.90;55.30;;;;;;5000896;28;20432;-88
2021/05/29 05:49:27;;;;;;;8.43;7.63;;;17.10;54.70;;;;;;4994182;28;20491;-88
2021/05/29 05:51:52;;;;;;;7.13;6.73;;;17.40;54.20;;;;;;4994079;28;20169;-88
2021/05/29 05:54:18;;;;;;;10.20;9.30;;;17.70;54.00;;;;;;4992904;28;20452;-88
2021/05/29 05:56:43;;;;;;;10.10;9.50;;;17.90;53.20;;;;;;4994324;28;20557;-88
2021/05/29 05:59:09;;;;;;;11.10;10.00;;;18.00;52.40;;;;;;4993729;28;20180;-86
2021/05/29 06:01:34;;;;;;;9.80;9.20;;;18.50;53.50;;;;;;4994142;28;20265;-86
2021/05/29 06:04:02;;;;;;;10.47;9.67;;;17.70;53.60;;;;;;4999051;28;20180;-89
2021/05/29 06:06:34;;;;;;;11.60;10.57;;;18.00;53.10;;;;;;4993655;28;20166;-89
2021/05/29 06:08:59;;;;;;;9.80;9.20;;;17.10;52.10;;;;;;4996863;28;20416;-90
2021/05/29 06:11:26;;;;;;;8.90;8.40;;;18.20;52.20;;;;;;5010986;28;20423;-90
2021/05/29 06:19:23;;;;;;;8.30;7.70;;;20.80;51.40;;;;;;5014598;28;20424;-87
2021/05/29 06:21:51;;;;;;;8.23;7.57;;;19.50;49.70;;;;;;4977119;28;20443;-87
2021/05/29 06:24:37;;;;;;;10.20;9.23;;;19.90;49.30;;;;;;4990921;28;20428;-91
2021/05/29 06:27:04;;;;;;;9.67;8.90;;;19.80;49.40;;;;;;5004750;28;20947;-90
2021/05/29 06:29:29;;;;;;;8.20;7.70;;;20.10;48.10;;;;;;4984189;28;20486;-90
2021/05/29 06:31:55;;;;;;;8.40;7.90;;;20.60;46.70;;;;;;4993789;28;20899;-88
2021/05/29 06:34:21;;;;;;;8.00;7.60;;;20.60;47.00;;;;;;4994785;28;20181;-88
2021/05/29 06:36:48;;;;;;;9.13;8.57;;;20.30;46.80;;;;;;4993729;28;20173;-88
2021/05/29 06:39:14;;;;;;;8.10;7.63;;;20.30;46.90;;;;;;4995153;28;20424;-86
2021/05/29 06:41:41;;;;;;;10.33;9.43;;;20.50;46.80;;;;;;4994690;28;20413;-88
2021/05/29 06:44:08;;;;;;;8.10;7.23;;;20.80;46.90;;;;;;4994021;28;20420;-88
2021/05/29 06:46:33;;;;;;;8.17;7.50;;;20.50;46.30;;;;;;4994740;28;20504;-88
2021/05/29 06:49:01;;;;;;;7.70;7.10;;;20.70;46.60;;;;;;4994675;28;20559;-90
2021/05/29 06:51:45;;;;;;;8.00;7.30;;;21.10;46.40;;;;;;4994881;28;20189;-88
2021/05/29 06:54:35;;;;;;;8.07;7.70;;;20.80;46.10;;;;;;4998799;28;20439;-88
2021/05/29 06:59:44;;;;;;;7.53;6.93;;;20.90;46.20;;;;;;5015021;28;20446;-88
2021/05/29 07:02:10;;;;;;;7.67;7.20;;;21.40;45.00;;;;;;4997154;28;20809;-87
2021/05/29 07:04:36;;;;;;;6.47;6.07;;;21.80;44.70;;;;;;4996627;28;20183;-88
2021/05/29 07:07:08;;;;;;;6.97;6.47;;;22.30;43.90;;;;;;5011032;28;20184;-91
2021/05/29 07:09:33;;;;;;;5.73;5.43;;;21.90;43.20;;;;;;4649655;28;10000259;-86
2021/05/29 07:12:29;;;;;;;5.67;5.47;;;22.70;43.50;;;;;;5010222;28;20239;-87
2021/05/29 07:14:56;;;;;;;5.97;5.77;;;23.00;41.90;;;;;;5033107;28;20209;-91
2021/05/29 07:17:31;;;;;;;6.67;6.30;;;23.10;42.50;;;;;;4997235;28;20432;-92
2021/05/29 07:19:57;;;;;;;5.83;5.63;;;23.60;43.10;;;;;;5120844;23;20494;-89
2021/05/29 07:22:23;;;;;;;6.83;6.33;;;23.10;42.00;;;;;;4996021;28;20417;-88
2021/05/29 07:24:49;;;;;;;6.73;6.40;;;23.40;42.20;;;;;;5004084;28;20192;-89
2021/05/29 07:27:15;;;;;;;7.13;6.77;;;22.40;41.90;;;;;;4978833;28;20884;-89
2021/05/29 07:30:07;;;;;;;7.07;6.70;;;23.50;42.50;;;;;;5000079;28;20176;-91
2021/05/29 07:32:43;;;;;;;6.70;6.20;;;23.30;41.90;;;;;;4993033;28;20208;-90
2021/05/29 07:35:09;;;;;;;7.33;6.93;;;22.50;42.10;;;;;;4987706;28;20417;-89
2021/05/29 07:37:36;;;;;;;7.10;6.70;;;22.30;42.30;;;;;;4963205;28;20421;-88
2021/05/29 07:40:03;;;;;;;7.40;6.80;;;22.80;42.50;;;;;;4979476;28;20412;-89
2021/05/29 07:42:30;;;;;;;6.60;6.20;;;23.20;41.80;;;;;;4964714;28;20429;-89
2021/05/29 07:44:56;;;;;;;7.17;6.77;;;23.30;41.30;;;;;;4961361;28;20504;-90
2021/05/29 07:47:23;;;;;;;7.00;6.43;;;25.20;41.90;;;;;;4975051;28;20432;-91
2021/05/29 07:50:07;;;;;;;7.23;6.60;;;23.00;39.20;;;;;;4972452;28;20334;-92
2021/05/29 07:52:39;;;;;;;6.17;5.93;;;23.60;38.90;;;;;;5100123;23;20491;-91
2021/05/29 07:55:10;;;;;;;8.23;6.50;;;24.70;40.80;;;;;;5034060;28;20438;-89
2021/05/29 08:05:36;;;;;;;14.50;11.87;;;24.50;39.30;;;;;;5130114;23;20479;-89
2021/05/29 08:08:02;;;;;;;44.97;28.13;;;24.80;39.10;;;;;;5014210;28;20432;-89
2021/05/29 08:10:28;;;;;;;8.23;7.80;;;24.20;39.40;;;;;;5015943;28;20508;-92
2021/05/29 08:12:56;;;;;;;8.83;6.63;;;23.90;38.50;;;;;;5016138;28;20490;-95
2021/05/29 08:15:41;;;;;;;10.73;9.63;;;23.70;38.50;;;;;;4996502;28;20448;-93
2021/05/29 08:18:16;;;;;;;8.87;8.30;;;25.50;37.80;;;;;;5011497;28;20193;-92
2021/05/29 08:20:45;;;;;;;6.67;6.37;;;25.20;37.10;;;;;;5014175;28;20409;-88
2021/05/29 08:23:20;;;;;;;8.17;7.53;;;25.40;37.20;;;;;;5017704;28;20754;-91
2021/05/29 08:26:26;;;;;;;8.07;7.60;;;25.50;35.40;;;;;;5003250;28;20451;-91
2021/05/29 08:28:51;;;;;;;9.37;8.77;;;25.60;36.10;;;;;;4967517;23;10001583;-89
2021/05/29 08:31:23;;;;;;;8.23;7.73;;;25.70;38.70;;;;;;4996928;28;20185;-88
2021/05/29 08:34:07;;;;;;;8.27;7.57;;;24.20;37.40;;;;;;4996923;28;20225;-89
2021/05/29 08:36:52;;;;;;;8.90;8.40;;;24.90;37.10;;;;;;4992861;28;20447;-93
2021/05/29 08:39:21;;;;;;;8.27;7.77;;;25.00;37.00;;;;;;4997577;28;20420;-89
2021/05/29 08:41:48;;;;;;;9.27;8.67;;;23.50;38.00;;;;;;4997657;28;20398;-88
2021/05/29 08:44:14;;;;;;;8.43;7.83;;;25.50;40.00;;;;;;4992624;28;20425;-89
2021/05/29 08:46:41;;;;;;;7.80;7.30;;;25.20;37.80;;;;;;4990450;28;20417;-88
2021/05/29 08:49:07;;;;;;;7.70;7.30;;;24.40;37.00;;;;;;4990842;28;20240;-92
2021/05/29 08:51:57;;;;;;;9.40;8.70;;;25.10;37.30;;;;;;4972572;28;20429;-87
2021/05/29 08:54:28;;;;;;;7.20;6.70;;;25.90;36.80;;;;;;4977243;28;20205;-92
2021/05/29 08:56:57;;;;;;;12.70;11.87;;;26.80;35.30;;;;;;4975446;28;20425;-90
2021/05/29 08:59:22;;;;;;;8.87;8.07;;;26.60;34.90;;;;;;4974964;28;20440;-89
2021/05/29 09:01:48;;;;;;;7.40;6.90;;;27.20;34.40;;;;;;4970268;28;20414;-87
2021/05/29 09:06:49;;;;;;;8.77;7.90;;;27.90;32.50;;;;;;5055383;23;20227;-87
2021/05/29 09:09:26;;;;;;;9.60;8.77;;;27.80;32.70;;;;;;5033750;28;20495;-92
2021/05/29 09:14:41;;;;;;;9.00;8.40;;;27.00;33.40;;;;;;4225278;23;20973;-89
2021/05/29 09:17:17;;;;;;;8.77;8.07;;;26.30;35.30;;;;;;5246515;23;20494;-90
2021/05/29 09:23:11;;;;;;;8.50;8.10;;;26.50;33.80;;;;;;5514574;22;20495;-89
2021/05/29 09:25:52;;;;;;;8.33;7.90;;;24.70;35.30;;;;;;5094657;23;20502;-91
2021/05/29 09:28:29;;;;;;;9.43;8.80;;;25.10;36.20;;;;;;5027379;28;20442;-89
2021/05/29 09:30:54;;;;;;;8.90;8.40;;;25.10;35.20;;;;;;5028138;28;20407;-88
2021/05/29 09:33:25;;;;;;;9.17;8.47;;;25.90;35.00;;;;;;5029935;28;20525;-90
2021/05/29 09:36:06;;;;;;;8.50;8.00;;;26.20;33.40;;;;;;5024966;28;20173;-91
2021/05/29 09:38:38;;;;;;;9.90;9.10;;;28.00;32.60;;;;;;5009556;28;20440;-92
2021/05/29 09:41:07;;;;;;;15.80;14.50;;;26.90;33.00;;;;;;5006155;28;20425;-89
2021/05/29 09:44:18;;;;;;;10.17;9.47;;;27.70;32.50;;;;;;5009617;28;20456;-90
2021/05/29 09:47:00;;;;;;;14.50;13.13;;;27.30;32.30;;;;;;5010615;28;20432;-91
2021/05/29 09:49:47;;;;;;;9.07;8.40;;;26.60;33.40;;;;;;5010127;28;20421;-88
2021/05/29 09:52:44;;;;;;;10.30;9.80;;;25.50;34.10;;;;;;5009017;28;20800;-90
2021/05/29 09:55:19;;;;;;;12.13;11.43;;;26.70;34.00;;;;;;5012092;28;20444;-87
2021/05/29 09:58:05;;;;;;;12.57;11.47;;;28.60;33.00;;;;;;5134885;23;20995;-90
2021/05/29 10:00:50;;;;;;;11.13;10.13;;;28.40;32.40;;;;;;5077172;23;20514;-90
2021/05/29 10:03:16;;;;;;;11.13;10.43;;;26.40;32.70;;;;;;5011259;28;20493;-90
2021/05/29 10:08:18;;;;;;;9.53;8.50;;;24.80;35.10;;;;;;1663255;23;20750;-88
2021/05/29 10:10:44;;;;;;;10.43;9.93;;;25.10;36.10;;;;;;5016203;28;20790;-91
2021/05/29 10:15:50;;;;;;;11.80;10.90;;;25.80;34.60;;;;;;5114149;23;20232;-91
2021/05/29 10:18:17;;;;;;;11.37;10.50;;;25.60;36.00;;;;;;4998810;28;20456;-90
2021/05/29 10:20:43;;;;;;;11.40;10.60;;;25.40;36.10;;;;;;5000076;28;20431;-92
2021/05/29 10:23:12;;;;;;;11.27;10.47;;;26.30;34.80;;;;;;4984375;28;20417;-89
2021/05/29 10:25:38;;;;;;;10.47;9.80;;;26.10;34.10;;;;;;4995830;28;20421;-90
2021/05/29 10:28:06;;;;;;;13.27;12.53;;;26.20;33.70;;;;;;5011481;28;20444;-85
2021/05/29 10:30:36;;;;;;;13.90;12.97;;;26.20;33.60;;;;;;4994811;28;20454;-88
2021/05/29 10:33:21;;;;;;;15.40;14.30;;;26.60;35.00;;;;;;4976731;28;20456;-90
2021/05/29 10:36:01;;;;;;;16.73;15.50;;;24.60;35.60;;;;;;5013512;28;20429;-92
2021/05/29 10:38:43;;;;;;;18.13;16.60;;;24.90;36.90;;;;;;4997194;28;20388;-89
2021/05/29 10:41:08;;;;;;;23.50;21.43;;;24.00;37.10;;;;;;4996013;28;20625;-87
2021/05/29 10:43:36;;;;;;;16.40;15.23;;;23.20;39.30;;;;;;5013112;28;20431;-88
2021/05/29 10:46:08;;;;;;;16.33;15.23;;;24.60;36.60;;;;;;5008306;28;20416;-86
2021/05/29 10:48:53;;;;;;;13.60;12.60;;;24.60;36.00;;;;;;4973668;28;20428;-88
2021/05/29 10:51:19;;;;;;;12.63;11.73;;;25.80;34.80;;;;;;4992342;28;20408;-90
2021/05/29 10:53:56;;;;;;;14.57;13.47;;;25.10;35.00;;;;;;5010318;28;20987;-89
2021/05/29 10:56:22;;;;;;;13.50;12.57;;;25.20;34.80;;;;;;4994043;28;20176;-89
2021/05/29 10:59:18;;;;;;;13.10;12.17;;;25.90;35.90;;;;;;4996555;28;20436;-91
2021/05/29 11:01:48;;;;;;;12.30;11.60;;;24.50;34.70;;;;;;4994470;28;20401;-90
2021/05/29 11:04:25;;;;;;;13.43;12.43;;;25.60;33.70;;;;;;5011805;28;20416;-90
2021/05/29 11:07:25;;;;;;;13.17;12.33;;;24.40;34.20;;;;;;4994645;28;20432;-90
2021/05/29 11:09:57;;;;;;;12.53;11.83;;;25.90;33.50;;;;;;5014442;28;20428;-89
2021/05/29 11:12:53;;;;;;;11.60;10.80;;;26.20;33.90;;;;;;5148924;23;20519;-88
2021/05/29 11:15:59;;;;;;;13.80;12.90;;;26.60;33.80;;;;;;5012911;28;20413;-90
2021/05/29 11:18:27;;;;;;;11.33;10.77;;;27.60;32.50;;;;;;5013178;28;20452;-90
2021/05/29 11:21:06;;;;;;;10.90;10.10;;;27.80;31.80;;;;;;4994655;28;20516;-91
2021/05/29 11:23:33;;;;;;;9.50;8.93;;;29.20;31.70;;;;;;4978975;28;20420;-89
2021/05/29 11:26:03;;;;;;;9.57;9.07;;;29.60;31.10;;;;;;4978009;28;20427;-92
2021/05/29 11:28:31;;;;;;;10.03;9.53;;;29.50;30.10;;;;;;5011587;28;20428;-87
2021/05/29 11:30:59;;;;;;;10.33;9.70;;;28.50;31.10;;;;;;4979321;28;20444;-90
2021/05/29 11:33:25;;;;;;;9.20;8.70;;;29.20;31.00;;;;;;4992990;28;20963;-88
2021/05/29 11:35:53;;;;;;;10.43;9.83;;;29.70;31.30;;;;;;5009493;28;20571;-90
2021/05/29 11:38:24;;;;;;;10.60;9.77;;;28.00;30.40;;;;;;4993263;28;20936;-90
2021/05/29 11:41:13;;;;;;;9.67;9.17;;;25.10;33.10;;;;;;5009534;28;20434;-91
2021/05/29 11:43:50;;;;;;;9.97;9.47;;;26.50;34.70;;;;;;4992120;28;20427;-87
2021/05/29 11:46:32;;;;;;;9.73;9.33;;;26.70;33.00;;;;;;5009281;28;20404;-88
2021/05/29 11:49:14;;;;;;;10.83;10.30;;;26.60;32.90;;;;;;5010180;28;20418;-90
2021/05/29 11:51:48;;;;;;;9.37;8.80;;;26.70;35.30;;;;;;4977560;28;20427;-89
2021/05/29 11:54:17;;;;;;;11.27;10.47;;;26.30;33.60;;;;;;5011161;28;20567;-88
2021/05/29 11:57:19;;;;;;;12.50;11.77;;;26.20;33.10;;;;;;5012241;28;20432;-90
2021/05/29 11:59:44;;;;;;;9.93;9.53;;;27.40;32.90;;;;;;4999312;28;20428;-90
2021/05/29 12:02:14;;;;;;;10.47;9.87;;;26.50;33.60;;;;;;4998545;28;20436;-92
2021/05/29 12:04:40;;;;;;;10.33;9.73;;;24.60;34.70;;;;;;4987207;28;20169;-88
2021/05/29 12:07:06;;;;;;;9.93;9.40;;;27.10;33.70;;;;;;5003364;28;20487;-86
2021/05/29 12:09:42;;;;;;;10.17;9.50;;;27.80;32.30;;;;;;5004642;28;20259;-87
2021/05/29 12:12:16;;;;;;;10.73;9.80;;;28.80;30.90;;;;;;5005100;28;20464;-88
2021/05/29 12:14:42;;;;;;;9.03;8.63;;;27.50;31.50;;;;;;5004941;28;20416;-89
2021/05/29 12:17:16;;;;;;;8.90;8.40;;;27.50;31.20;;;;;;5005193;28;20492;-88
2021/05/29 12:19:45;;;;;;;8.80;8.10;;;28.30;30.00;;;;;;4981912;28;20447;-87
2021/05/29 12:22:24;;;;;;;9.27;8.67;;;28.40;30.40;;;;;;5000903;28;20905;-88
2021/05/29 12:30:34;;;;;;;8.10;7.50;;;28.80;29.80;;;;;;5443365;23;20458;-91
2021/05/29 12:33:16;;;;;;;8.40;7.87;;;28.60;30.40;;;;;;5024894;28;20505;-91
2021/05/29 12:35:42;;;;;;;8.80;8.30;;;29.70;30.10;;;;;;5021156;28;20411;-90
2021/05/29 12:38:19;;;;;;;8.83;8.33;;;27.20;30.90;;;;;;5003500;28;20438;-89
2021/05/29 12:41:00;;;;;;;7.87;7.47;;;26.30;32.10;;;;;;5003655;28;20176;-88
2021/05/29 12:43:26;;;;;;;7.70;7.27;;;26.80;32.20;;;;;;5021210;28;20423;-88
2021/05/29 12:45:55;;;;;;;7.90;7.40;;;27.80;32.50;;;;;;5019200;28;20415;-87
2021/05/29 12:48:22;;;;;;;7.57;7.17;;;27.50;30.70;;;;;;5020892;28;20430;-87
2021/05/29 12:51:00;;;;;;;8.30;7.80;;;26.30;31.30;;;;;;5019870;28;20471;-89
2021/05/29 12:53:33;;;;;;;9.10;8.40;;;24.20;33.60;;;;;;5019993;28;20478;-88
2021/05/29 12:56:18;;;;;;;7.20;6.90;;;21.90;33.90;;;;;;5022199;28;20446;-89
2021/05/29 12:58:58;;;;;;;7.97;7.37;;;25.00;34.50;;;;;;5001514;28;20432;-89
2021/05/29 13:09:35;;;;;;;8.00;7.40;;;27.40;30.90;;;;;;4308927;28;10000769;-90
2021/05/29 13:12:15;;;;;;;8.67;8.10;;;28.60;30.60;;;;;;4979712;28;20255;-89
2021/05/29 13:14:42;;;;;;;7.20;6.80;;;28.80;30.60;;;;;;4980070;28;20831;-89
2021/05/29 13:17:20;;;;;;;8.73;8.13;;;28.10;30.60;;;;;;4997061;28;20440;-87
2021/05/29 13:19:53;;;;;;;17.53;15.67;;;28.10;32.80;;;;;;4996913;28;20511;-90
2021/05/29 13:22:31;;;;;;;7.83;7.40;;;25.60;32.50;;;;;;4998488;28;20443;-88
2021/05/29 13:25:06;;;;;;;6.77;6.57;;;24.70;31.30;;;;;;4979968;28;20425;-88
2021/05/29 13:27:31;;;;;;;6.97;6.60;;;27.60;32.10;;;;;;4981872;28;20424;-89
2021/05/29 13:30:22;;;;;;;7.40;7.00;;;28.70;31.90;;;;;;5000624;28;20501;-89
2021/05/29 13:33:00;;;;;;;10.57;9.70;;;29.10;30.10;;;;;;4997339;28;20228;-89
2021/05/29 13:35:26;;;;;;;9.37;8.77;;;28.60;30.50;;;;;;4997281;28;20413;-90
2021/05/29 13:37:51;;;;;;;8.73;8.03;;;26.50;32.00;;;;;;4996447;28;20490;-89
2021/05/29 13:40:17;;;;;;;8.73;8.17;;;24.70;33.80;;;;;;4999838;28;20659;-89
2021/05/29 13:42:51;;;;;;;7.43;6.93;;;25.30;33.50;;;;;;5000481;28;20187;-88
2021/05/29 13:45:19;;;;;;;7.83;7.33;;;26.00;32.80;;;;;;4998584;28;20173;-89